If you wish to contribute or participate in the discussions about articles you are invited to join SKYbrary as a registered user

 Actions

Alghero–Fertilia Airport

From SKYbrary Wiki

LIEA
Airport
ICAO: LIEA – IATA: AHO
Summary
Name Alghero–Fertilia Airport
Region Europe
Territory Italy IT.gif
Location Fertilia, Sardinia
Serving Alghero
Elevation 26.518 m <br />87 ft26.518 m <br />
Coordinates 40° 37' 51.17" N, 8° 17' 18.17" E
Runways
Designator Length Width Surface ROPS
2/20 3000 m9,842.52 ft <br /> 45 m147.638 ft <br /> ASP yes/yes


METAR
Observation LIEA 250020Z 04004KT CAVOK 17/13 Q1019
Station Alghero
Date/Time 25 October 2021 00:20:00
Wind direction 40°
Wind speed 04 kts
Lowest cloud amount clouds and visibility OK
Temperature 17°C
Dew point 13°C
Humidity 77%
QNH 1019 hPa
Weather condition n/a

Alghero - Riviera del Corallo Airport is an international airport situated 4.3 nm north-northwest of the city of Alghero, in northern Sardinia, Italy. It is also known as Alghero–Fertilia Airport, named for the nearby village of Fertilia or Alghero Airport.

Climatology

Warm mediterranean climate (Köppen climate classification Csa)

Maps

Terrain

Loading map...

Airport Layout

Loading map...


Accidents & Serious Incidents at or in vicinity of LIEA

None on SKYbrary